METAR - Ísland

Uppfært síðast 07.08.2020 - kl. 19:10

SIGMET síðustu 6 klst.

Engin SIGMET skeyti bárust síðustu 6 klst.

METAR síðustu 3 klst

Flugv.TímiSkeyti
BIAR2020-08-07 19.00METAR BIAR 071900Z 18011KT 150V210 9999 BKN059 15/07 Q0994
BIAR2020-08-07 18.00METAR BIAR 071800Z 17018KT 9999 BKN058 15/07 Q0994
BIAR2020-08-07 17.00METAR BIAR 071700Z 18015KT 9999 BKN058 17/07 Q0993
BIBD2020-08-07 16.44METAR BIBD 071644Z 30005KT 9999 SCT015 BKN030 BKN040 10/06 Q0995
BIEG2020-08-07 19.00METAR BIEG 071900Z 17019KT 9999 FEW038 SCT051 14/06 Q0997
BIEG2020-08-07 18.00METAR BIEG 071800Z 18019KT 9999 FEW035 SCT052 BKN070 15/06 Q0997
BIEG2020-08-07 17.00METAR BIEG 071700Z 21020KT 9999 FEW035 SCT053 17/07 Q0996
BIHN2020-08-07 19.00METAR BIHN 071900Z 19012KT 9999 BR VCSH FEW009CB FEW013 SCT050 12/10 Q1001
BIHN2020-08-07 18.00METAR BIHN 071800Z 19012KT 9999 BR VCSH FEW009CB SCT012 BKN040 12/10 Q1000
BIHN2020-08-07 17.00METAR BIHN 071700Z 20013KT 9999 -SHRA BR FEW009CB BKN012 BKN035 11/10 Q1000
BIHU2020-08-07 17.00METAR BIHU 071700Z 21016KT 9999 BKN062 18/06 Q0993
BIIS2020-08-07 17.00METAR BIIS 071700Z 23009KT 9999 RA FEW008 SCT014 OVC018 08/04 Q0995
BIKF2020-08-07 19.00METAR BIKF 071900Z 28018KT 9999 -DZ BKN008 BKN049 OVC070 09/08 Q0999
BIKF2020-08-07 18.30METAR BIKF 071830Z 29017KT 9999 -DZRA BKN008 BKN035 OVC050 09/08 Q0999
BIKF2020-08-07 18.00METAR BIKF 071800Z 29018KT 9999 -DZRA BKN008 OVC035 09/09 Q0998
BIKF2020-08-07 17.30METAR BIKF 071730Z 29019KT 9999 -DZRA BKN007 OVC033 09/09 Q0998
BIKF2020-08-07 17.00METAR BIKF 071700Z 29017KT 9999 -DZRA BKN008 BKN018 OVC036 10/09 Q0997
BIKF2020-08-07 16.30METAR BIKF 071630Z 30017KT 9999 -RA BKN008 BKN018 OVC036 10/09 Q0997
BIRK2020-08-07 19.00METAR BIRK 071900Z 28015KT 9999 -RA FEW003 OVC017 10/08 Q0998
BIRK2020-08-07 18.00METAR BIRK 071800Z 29014KT 7000 RA FEW003 BKN024 OVC047 10/08 Q0997
BIRK2020-08-07 17.00METAR BIRK 071700Z 29012KT 9999 -RA SCT007 OVC012 10/08 Q0997
BIVM2020-08-07 19.00METAR BIVM 071900Z 26010KT 9999 RA BKN005 BKN018 10/09 Q0999
BIVM2020-08-07 18.00METAR BIVM 071800Z 25011KT 9999 RA FEW006 BKN012 11/09 Q0998
BIVM2020-08-07 17.00METAR BIVM 071700Z 24011KT 9999 SCT005 BKN009 BKN015 10/09 Q0998

Textaspár eru skrifaðar af vakthafandi veðurfræðingi á Veðurstofu Íslands.




Aðrir tengdir vefir



Þetta vefsvæði byggir á Eplica